Brilliance Of The Seas — C6SJ5 — position and weather

sailwx.info

Track history (hours):
 
Tides and Currents Weather Stations Pressure Air Temp Water Temp Dewpoint Dewpoint Depression Visibility Wind Speed Wind Dir Waves Ship Positions

Brilliance Of The Seas

Operator: Royal Caribbean Cruises Ltd

Last reported at 2016-May-02 09:00 UTC. Time now 2016-May-03 08:41 UTC.
Position N 23°18' W 044°12'.

Type: Ship. MMSI: 311361000.

Wind from 360 at 12 knots

Waves 1.0 meters (3 feet), 5 second period

Barometer 1014.0 mb
Air temperature 22.0 ° C
Visibility: greater than 5.4 NM
Dewpoint 20.5 ° C
Water temperature 24.0 ° C

Date/timePositionNaut miles runAvg speedWind from/ knotsBaromVisibWave heightAir tempDewpointWater temp
2016-May-02 09:00N 23°18' W 044°12'   360 / 121014.0 5.4 1.022.020.524.0
2016-Apr-29 11:33N 18°27' W 066°07'35619.2
2016-Apr-28 17:00N 20°18' W 072°06'45118.8 100 / 51008.0 5.4 1.027.025.628.0
2016-Apr-27 17:00N 23°06' W 079°36'14123.4 100 / 101008.0 5.4 1.026.023.228.0
2016-Apr-27 11:00N 23°54' W 082°00'16519.3 120 / 181004.0 5.4 3.026.024.628.0
2016-Apr-27 02:26N 26°27' W 083°08'2123.3
2016-Apr-27 01:33N 26°47' W 083°05'2322.8
2016-Apr-27 00:33N 27°10' W 083°04'2518.9
2016-Apr-26 23:14N 27°35' W 083°00'2714.6
2016-Apr-26 21:23N 27°44' W 082°32'1011.8
2016-Apr-26 20:33N 27°53' W 082°26'4 3.5
2016-Apr-26 19:32N 27°57' W 082°27'0 0.0
2016-Apr-26 18:32N 27°57' W 082°27'0 0.0
2016-Apr-26 17:32N 27°57' W 082°27'0 0.0
2016-Apr-26 16:32N 27°57' W 082°27'0 0.0
2016-Apr-26 15:32N 27°57' W 082°27'0 0.0
2016-Apr-26 14:32N 27°57' W 082°27'0 0.0
2016-Apr-26 13:29N 27°57' W 082°27'0 0.0
2016-Apr-26 12:32N 27°57' W 082°27'0 0.0
2016-Apr-26 11:32N 27°57' W 082°27'0 0.3
2016-Apr-26 10:33N 27°56' W 082°27'5 4.8
2016-Apr-26 09:33N 27°52' W 082°27'1313.5
2016-Apr-26 08:33N 27°41' W 082°35'48714.3
2016-Apr-24 22:30N 20°36' W 086°57'7 7.5
2016-Apr-24 21:33N 20°29' W 086°59'0 0.0
2016-Apr-24 20:33N 20°29' W 086°59'0 0.0
2016-Apr-24 19:33N 20°29' W 086°59'0 0.0
2016-Apr-24 18:33N 20°29' W 086°59'0 0.0
2016-Apr-24 17:33N 20°29' W 086°59'0 0.0
2016-Apr-24 16:27N 20°29' W 086°59'0 0.0
2016-Apr-24 15:33N 20°29' W 086°59'0 0.0
2016-Apr-24 14:33N 20°29' W 086°59'0 0.0
2016-Apr-24 13:33N 20°29' W 086°59'0 0.0
2016-Apr-24 12:33N 20°29' W 086°59'0 0.0
2016-Apr-24 11:30N 20°29' W 086°59'0 0.0
2016-Apr-24 10:33N 20°29' W 086°59'0 0.0
2016-Apr-24 09:33N 20°29' W 086°59'0 0.0
2016-Apr-24 08:33N 20°29' W 086°59'0 0.0
2016-Apr-24 07:33N 20°29' W 086°59'3 2.5
2016-Apr-24 06:33N 20°31' W 086°59'49615.0
2016-Apr-22 21:29N 27°44' W 082°32'1212.4
2016-Apr-22 20:33N 27°54' W 082°26'3 2.6
2016-Apr-22 19:33N 27°57' W 082°27'0 0.0
2016-Apr-22 18:33N 27°57' W 082°27'0 0.0
2016-Apr-22 17:33N 27°57' W 082°27'0 0.0
2016-Apr-22 16:33N 27°57' W 082°27'0 0.0
2016-Apr-22 15:33N 27°57' W 082°27'0 0.0
2016-Apr-22 14:33N 27°57' W 082°27'0 0.0
2016-Apr-22 13:33N 27°57' W 082°27'0 0.0
2016-Apr-22 12:33N 27°57' W 082°27'0 0.0
2016-Apr-22 11:33N 27°57' W 082°27'0 0.2
2016-Apr-22 10:33N 27°56' W 082°27'6 6.2
2016-Apr-22 09:33N 27°50' W 082°27'  
Track history (hours):
 
Tides and Currents Weather Stations Pressure Air Temp Water Temp Dewpoint Dewpoint Depression Visibility Wind Speed Wind Dir Waves Ship Positions

Brilliance Of The Seas

Operator: Royal Caribbean Cruises Ltd

Last reported at 2016-May-02 09:00 UTC. Time now 2016-May-03 08:41 UTC.
Position N 23°18' W 044°12'.

Type: Ship. MMSI: 311361000.

Wind from 360 at 12 knots

Waves 1.0 meters (3 feet), 5 second period

Barometer 1014.0 mb
Air temperature 22.0 ° C
Visibility: greater than 5.4 NM
Dewpoint 20.5 ° C
Water temperature 24.0 ° C

Date/timePositionNaut miles runAvg speedWind from/ knotsBaromVisibWave heightAir tempDewpointWater temp
2016-May-02 09:00N 23°18' W 044°12'   360 / 121014.0 5.4 1.022.020.524.0
2016-Apr-29 11:33N 18°27' W 066°07'35619.2
2016-Apr-28 17:00N 20°18' W 072°06'45118.8 100 / 51008.0 5.4 1.027.025.628.0
2016-Apr-27 17:00N 23°06' W 079°36'14123.4 100 / 101008.0 5.4 1.026.023.228.0
2016-Apr-27 11:00N 23°54' W 082°00'16519.3 120 / 181004.0 5.4 3.026.024.628.0
2016-Apr-27 02:26N 26°27' W 083°08'2123.3
2016-Apr-27 01:33N 26°47' W 083°05'2322.8
2016-Apr-27 00:33N 27°10' W 083°04'2518.9
2016-Apr-26 23:14N 27°35' W 083°00'2714.6
2016-Apr-26 21:23N 27°44' W 082°32'1011.8
2016-Apr-26 20:33N 27°53' W 082°26'4 3.5
2016-Apr-26 19:32N 27°57' W 082°27'0 0.0
2016-Apr-26 18:32N 27°57' W 082°27'0 0.0
2016-Apr-26 17:32N 27°57' W 082°27'0 0.0
2016-Apr-26 16:32N 27°57' W 082°27'0 0.0
2016-Apr-26 15:32N 27°57' W 082°27'0 0.0
2016-Apr-26 14:32N 27°57' W 082°27'0 0.0
2016-Apr-26 13:29N 27°57' W 082°27'0 0.0
2016-Apr-26 12:32N 27°57' W 082°27'0 0.0
2016-Apr-26 11:32N 27°57' W 082°27'0 0.3
2016-Apr-26 10:33N 27°56' W 082°27'5 4.8
2016-Apr-26 09:33N 27°52' W 082°27'1313.5
2016-Apr-26 08:33N 27°41' W 082°35'48714.3
2016-Apr-24 22:30N 20°36' W 086°57'7 7.5
2016-Apr-24 21:33N 20°29' W 086°59'0 0.0
2016-Apr-24 20:33N 20°29' W 086°59'0 0.0
2016-Apr-24 19:33N 20°29' W 086°59'0 0.0
2016-Apr-24 18:33N 20°29' W 086°59'0 0.0
2016-Apr-24 17:33N 20°29' W 086°59'0 0.0
2016-Apr-24 16:27N 20°29' W 086°59'0 0.0
2016-Apr-24 15:33N 20°29' W 086°59'0 0.0
2016-Apr-24 14:33N 20°29' W 086°59'0 0.0
2016-Apr-24 13:33N 20°29' W 086°59'0 0.0
2016-Apr-24 12:33N 20°29' W 086°59'0 0.0
2016-Apr-24 11:30N 20°29' W 086°59'0 0.0
2016-Apr-24 10:33N 20°29' W 086°59'0 0.0
2016-Apr-24 09:33N 20°29' W 086°59'0 0.0
2016-Apr-24 08:33N 20°29' W 086°59'0 0.0
2016-Apr-24 07:33N 20°29' W 086°59'3 2.5
2016-Apr-24 06:33N 20°31' W 086°59'49615.0
2016-Apr-22 21:29N 27°44' W 082°32'1212.4
2016-Apr-22 20:33N 27°54' W 082°26'3 2.6
2016-Apr-22 19:33N 27°57' W 082°27'0 0.0
2016-Apr-22 18:33N 27°57' W 082°27'0 0.0
2016-Apr-22 17:33N 27°57' W 082°27'0 0.0
2016-Apr-22 16:33N 27°57' W 082°27'0 0.0
2016-Apr-22 15:33N 27°57' W 082°27'0 0.0
2016-Apr-22 14:33N 27°57' W 082°27'0 0.0
2016-Apr-22 13:33N 27°57' W 082°27'0 0.0
2016-Apr-22 12:33N 27°57' W 082°27'0 0.0
2016-Apr-22 11:33N 27°57' W 082°27'0 0.2
2016-Apr-22 10:33N 27°56' W 082°27'6 6.2
2016-Apr-22 09:33N 27°50' W 082°27'  

Dump ship's entire track history